sensor_id;sensor_type;location;lat;lon;timestamp;P1;durP1;ratioP1;P2;durP2;ratioP2
67372;SDS011;54257;54.496;18.412;2023-05-02T00:02:18;11.10;;;6.90;;
67372;SDS011;54257;54.496;18.412;2023-05-02T00:04:45;9.90;;;6.90;;
67372;SDS011;54257;54.496;18.412;2023-05-02T00:07:13;13.30;;;7.40;;
67372;SDS011;54257;54.496;18.412;2023-05-02T00:09:40;13.10;;;7.40;;
67372;SDS011;54257;54.496;18.412;2023-05-02T00:12:07;9.40;;;6.50;;
67372;SDS011;54257;54.496;18.412;2023-05-02T00:14:34;10.70;;;6.60;;
67372;SDS011;54257;54.496;18.412;2023-05-02T00:17:01;12.70;;;7.30;;
67372;SDS011;54257;54.496;18.412;2023-05-02T00:19:28;10.80;;;6.60;;
67372;SDS011;54257;54.496;18.412;2023-05-02T00:21:55;10.30;;;6.40;;
67372;SDS011;54257;54.496;18.412;2023-05-02T00:24:22;9.80;;;6.80;;
67372;SDS011;54257;54.496;18.412;2023-05-02T00:26:48;10.20;;;7.50;;
67372;SDS011;54257;54.496;18.412;2023-05-02T00:29:15;10.00;;;7.20;;
67372;SDS011;54257;54.496;18.412;2023-05-02T00:31:42;9.90;;;7.60;;
67372;SDS011;54257;54.496;18.412;2023-05-02T00:34:09;12.40;;;7.30;;
67372;SDS011;54257;54.496;18.412;2023-05-02T00:36:36;11.20;;;6.60;;
67372;SDS011;54257;54.496;18.412;2023-05-02T00:39:03;10.90;;;7.20;;
67372;SDS011;54257;54.496;18.412;2023-05-02T00:41:30;12.70;;;6.80;;
67372;SDS011;54257;54.496;18.412;2023-05-02T00:43:57;11.40;;;7.10;;
67372;SDS011;54257;54.496;18.412;2023-05-02T00:46:24;9.60;;;6.70;;
67372;SDS011;54257;54.496;18.412;2023-05-02T00:48:51;19.00;;;8.00;;
67372;SDS011;54257;54.496;18.412;2023-05-02T00:51:18;11.30;;;7.10;;
67372;SDS011;54257;54.496;18.412;2023-05-02T00:53:45;11.30;;;7.40;;
67372;SDS011;54257;54.496;18.412;2023-05-02T00:56:12;13.30;;;7.30;;
67372;SDS011;54257;54.496;18.412;2023-05-02T00:58:42;12.40;;;7.80;;
67372;SDS011;54257;54.496;18.412;2023-05-02T01:04:03;12.20;;;8.50;;
67372;SDS011;54257;54.496;18.412;2023-05-02T01:12:51;10.60;;;7.70;;
67372;SDS011;54257;54.496;18.412;2023-05-02T01:15:24;12.00;;;8.20;;
67372;SDS011;54257;54.496;18.412;2023-05-02T01:17:52;9.80;;;6.90;;
67372;SDS011;54257;54.496;18.412;2023-05-02T01:20:22;14.90;;;8.00;;
67372;SDS011;54257;54.496;18.412;2023-05-02T01:22:54;11.00;;;7.80;;
67372;SDS011;54257;54.496;18.412;2023-05-02T01:25:26;9.80;;;7.30;;
67372;SDS011;54257;54.496;18.412;2023-05-02T01:30:57;16.90;;;7.40;;
67372;SDS011;54257;54.496;18.412;2023-05-02T01:33:25;13.70;;;8.40;;
67372;SDS011;54257;54.496;18.412;2023-05-02T01:35:55;15.80;;;8.00;;
67372;SDS011;54257;54.496;18.412;2023-05-02T01:38:23;12.30;;;7.90;;
67372;SDS011;54257;54.496;18.412;2023-05-02T01:40:52;12.70;;;8.30;;
67372;SDS011;54257;54.496;18.412;2023-05-02T01:43:20;10.50;;;7.40;;
67372;SDS011;54257;54.496;18.412;2023-05-02T01:45:48;15.20;;;8.00;;
67372;SDS011;54257;54.496;18.412;2023-05-02T01:48:17;10.30;;;7.60;;
67372;SDS011;54257;54.496;18.412;2023-05-02T01:50:45;14.70;;;8.40;;
67372;SDS011;54257;54.496;18.412;2023-05-02T01:53:14;11.10;;;7.40;;
67372;SDS011;54257;54.496;18.412;2023-05-02T01:55:42;15.00;;;8.50;;
67372;SDS011;54257;54.496;18.412;2023-05-02T01:58:12;13.40;;;7.70;;
67372;SDS011;54257;54.496;18.412;2023-05-02T02:00:40;23.60;;;8.80;;
67372;SDS011;54257;54.496;18.412;2023-05-02T02:03:10;15.90;;;8.00;;
67372;SDS011;54257;54.496;18.412;2023-05-02T02:05:39;10.60;;;7.00;;
67372;SDS011;54257;54.496;18.412;2023-05-02T02:08:07;11.00;;;7.10;;
67372;SDS011;54257;54.496;18.412;2023-05-02T02:10:35;11.80;;;7.40;;
67372;SDS011;54257;54.496;18.412;2023-05-02T02:16:00;11.10;;;6.80;;
67372;SDS011;54257;54.496;18.412;2023-05-02T02:18:31;10.90;;;7.30;;
67372;SDS011;54257;54.496;18.412;2023-05-02T02:21:05;15.40;;;7.90;;
67372;SDS011;54257;54.496;18.412;2023-05-02T02:23:35;10.50;;;7.50;;
67372;SDS011;54257;54.496;18.412;2023-05-02T02:26:04;15.90;;;7.40;;
67372;SDS011;54257;54.496;18.412;2023-05-02T02:28:35;15.10;;;7.50;;
67372;SDS011;54257;54.496;18.412;2023-05-02T02:31:02;13.60;;;7.70;;
67372;SDS011;54257;54.496;18.412;2023-05-02T02:33:29;9.00;;;7.50;;
67372;SDS011;54257;54.496;18.412;2023-05-02T02:36:06;10.80;;;7.70;;
67372;SDS011;54257;54.496;18.412;2023-05-02T02:38:42;11.70;;;6.70;;
67372;SDS011;54257;54.496;18.412;2023-05-02T02:41:26;10.20;;;7.40;;
67372;SDS011;54257;54.496;18.412;2023-05-02T02:44:21;12.50;;;7.70;;
67372;SDS011;54257;54.496;18.412;2023-05-02T02:52:27;10.00;;;6.90;;
67372;SDS011;54257;54.496;18.412;2023-05-02T02:54:59;11.30;;;7.10;;
67372;SDS011;54257;54.496;18.412;2023-05-02T03:00:38;10.10;;;6.60;;
67372;SDS011;54257;54.496;18.412;2023-05-02T03:03:06;10.90;;;6.80;;
67372;SDS011;54257;54.496;18.412;2023-05-02T03:05:33;11.50;;;7.20;;
67372;SDS011;54257;54.496;18.412;2023-05-02T03:08:01;12.00;;;7.20;;
67372;SDS011;54257;54.496;18.412;2023-05-02T03:10:28;11.30;;;6.90;;
67372;SDS011;54257;54.496;18.412;2023-05-02T03:12:55;13.70;;;7.90;;
67372;SDS011;54257;54.496;18.412;2023-05-02T03:18:17;13.70;;;7.10;;
67372;SDS011;54257;54.496;18.412;2023-05-02T03:20:44;13.40;;;6.60;;
67372;SDS011;54257;54.496;18.412;2023-05-02T03:23:11;15.40;;;7.70;;
67372;SDS011;54257;54.496;18.412;2023-05-02T03:25:38;14.20;;;7.60;;
67372;SDS011;54257;54.496;18.412;2023-05-02T03:28:05;17.10;;;11.00;;
67372;SDS011;54257;54.496;18.412;2023-05-02T03:30:32;17.90;;;11.40;;
67372;SDS011;54257;54.496;18.412;2023-05-02T03:32:59;19.10;;;12.10;;
67372;SDS011;54257;54.496;18.412;2023-05-02T03:35:28;20.70;;;11.40;;
67372;SDS011;54257;54.496;18.412;2023-05-02T03:37:55;17.30;;;11.90;;
67372;SDS011;54257;54.496;18.412;2023-05-02T03:40:22;16.90;;;9.90;;
67372;SDS011;54257;54.496;18.412;2023-05-02T03:42:49;15.10;;;9.20;;
67372;SDS011;54257;54.496;18.412;2023-05-02T03:45:15;14.60;;;9.00;;
67372;SDS011;54257;54.496;18.412;2023-05-02T03:47:43;13.60;;;8.20;;
67372;SDS011;54257;54.496;18.412;2023-05-02T03:50:10;11.90;;;7.70;;
67372;SDS011;54257;54.496;18.412;2023-05-02T03:52:37;14.70;;;8.40;;
67372;SDS011;54257;54.496;18.412;2023-05-02T03:55:04;10.00;;;7.00;;
67372;SDS011;54257;54.496;18.412;2023-05-02T03:57:33;10.20;;;7.70;;
67372;SDS011;54257;54.496;18.412;2023-05-02T04:00:00;13.10;;;8.20;;
67372;SDS011;54257;54.496;18.412;2023-05-02T04:02:29;12.10;;;7.40;;
67372;SDS011;54257;54.496;18.412;2023-05-02T04:04:56;10.70;;;7.60;;
67372;SDS011;54257;54.496;18.412;2023-05-02T04:07:23;12.20;;;7.30;;
67372;SDS011;54257;54.496;18.412;2023-05-02T04:09:51;12.30;;;8.00;;
67372;SDS011;54257;54.496;18.412;2023-05-02T04:12:18;12.60;;;8.20;;
67372;SDS011;54257;54.496;18.412;2023-05-02T04:14:45;9.70;;;6.90;;
67372;SDS011;54257;54.496;18.412;2023-05-02T04:17:12;14.80;;;8.20;;
67372;SDS011;54257;54.496;18.412;2023-05-02T04:19:41;11.60;;;7.40;;
67372;SDS011;54257;54.496;18.412;2023-05-02T04:22:08;12.10;;;7.60;;
67372;SDS011;54257;54.496;18.412;2023-05-02T04:24:35;16.00;;;8.10;;
67372;SDS011;54257;54.496;18.412;2023-05-02T04:27:01;14.20;;;7.20;;
67372;SDS011;54257;54.496;18.412;2023-05-02T04:29:28;13.90;;;8.10;;
67372;SDS011;54257;54.496;18.412;2023-05-02T04:31:55;12.40;;;7.30;;
67372;SDS011;54257;54.496;18.412;2023-05-02T04:34:22;10.30;;;7.20;;
67372;SDS011;54257;54.496;18.412;2023-05-02T04:36:49;10.80;;;7.80;;
67372;SDS011;54257;54.496;18.412;2023-05-02T04:39:16;12.70;;;7.40;;
67372;SDS011;54257;54.496;18.412;2023-05-02T04:41:43;10.70;;;6.80;;
67372;SDS011;54257;54.496;18.412;2023-05-02T04:44:09;9.10;;;6.50;;
67372;SDS011;54257;54.496;18.412;2023-05-02T04:46:36;9.90;;;6.70;;
67372;SDS011;54257;54.496;18.412;2023-05-02T04:49:03;10.30;;;6.60;;
67372;SDS011;54257;54.496;18.412;2023-05-02T04:51:30;12.80;;;7.10;;
67372;SDS011;54257;54.496;18.412;2023-05-02T04:53:57;10.40;;;7.10;;
67372;SDS011;54257;54.496;18.412;2023-05-02T04:56:24;12.90;;;6.20;;
67372;SDS011;54257;54.496;18.412;2023-05-02T04:58:51;10.60;;;6.50;;
67372;SDS011;54257;54.496;18.412;2023-05-02T05:01:18;9.70;;;6.40;;
67372;SDS011;54257;54.496;18.412;2023-05-02T05:03:45;9.50;;;6.30;;
67372;SDS011;54257;54.496;18.412;2023-05-02T05:06:12;13.90;;;7.30;;
67372;SDS011;54257;54.496;18.412;2023-05-02T05:08:40;11.50;;;7.00;;
67372;SDS011;54257;54.496;18.412;2023-05-02T05:11:06;10.50;;;6.20;;
67372;SDS011;54257;54.496;18.412;2023-05-02T05:13:33;11.60;;;5.80;;
67372;SDS011;54257;54.496;18.412;2023-05-02T05:16:01;9.20;;;5.50;;
67372;SDS011;54257;54.496;18.412;2023-05-02T05:18:30;10.10;;;5.80;;
67372;SDS011;54257;54.496;18.412;2023-05-02T05:20:57;10.60;;;6.70;;
67372;SDS011;54257;54.496;18.412;2023-05-02T05:23:24;8.90;;;5.20;;
67372;SDS011;54257;54.496;18.412;2023-05-02T05:25:50;8.10;;;5.00;;
67372;SDS011;54257;54.496;18.412;2023-05-02T05:28:17;9.60;;;5.50;;
67372;SDS011;54257;54.496;18.412;2023-05-02T05:30:45;10.90;;;5.60;;
67372;SDS011;54257;54.496;18.412;2023-05-02T05:33:12;10.40;;;4.70;;
67372;SDS011;54257;54.496;18.412;2023-05-02T05:35:38;8.00;;;4.70;;
67372;SDS011;54257;54.496;18.412;2023-05-02T05:38:05;7.80;;;5.30;;
67372;SDS011;54257;54.496;18.412;2023-05-02T05:40:32;5.00;;;4.30;;
67372;SDS011;54257;54.496;18.412;2023-05-02T05:42:59;6.60;;;4.40;;
67372;SDS011;54257;54.496;18.412;2023-05-02T05:45:26;6.30;;;4.30;;
67372;SDS011;54257;54.496;18.412;2023-05-02T05:47:53;8.30;;;3.90;;
67372;SDS011;54257;54.496;18.412;2023-05-02T05:50:21;9.60;;;4.80;;
67372;SDS011;54257;54.496;18.412;2023-05-02T05:52:47;6.90;;;3.90;;
67372;SDS011;54257;54.496;18.412;2023-05-02T05:55:14;9.50;;;5.60;;
67372;SDS011;54257;54.496;18.412;2023-05-02T05:57:41;8.50;;;4.30;;
67372;SDS011;54257;54.496;18.412;2023-05-02T06:00:08;5.50;;;4.50;;
67372;SDS011;54257;54.496;18.412;2023-05-02T06:02:36;7.80;;;4.70;;
67372;SDS011;54257;54.496;18.412;2023-05-02T06:05:03;8.80;;;4.60;;
67372;SDS011;54257;54.496;18.412;2023-05-02T06:07:31;6.00;;;4.10;;
67372;SDS011;54257;54.496;18.412;2023-05-02T06:09:58;7.90;;;4.60;;
67372;SDS011;54257;54.496;18.412;2023-05-02T06:12:25;9.80;;;4.30;;
67372;SDS011;54257;54.496;18.412;2023-05-02T06:14:52;6.00;;;4.50;;
67372;SDS011;54257;54.496;18.412;2023-05-02T06:17:20;6.00;;;4.80;;
67372;SDS011;54257;54.496;18.412;2023-05-02T06:19:48;5.70;;;4.00;;
67372;SDS011;54257;54.496;18.412;2023-05-02T06:22:21;8.10;;;4.80;;
67372;SDS011;54257;54.496;18.412;2023-05-02T06:24:48;7.30;;;3.90;;
67372;SDS011;54257;54.496;18.412;2023-05-02T06:27:15;6.90;;;3.90;;
67372;SDS011;54257;54.496;18.412;2023-05-02T06:29:43;4.80;;;4.00;;
67372;SDS011;54257;54.496;18.412;2023-05-02T06:32:10;6.40;;;4.60;;
67372;SDS011;54257;54.496;18.412;2023-05-02T06:34:37;19.00;;;5.80;;
67372;SDS011;54257;54.496;18.412;2023-05-02T06:37:04;8.60;;;4.30;;
67372;SDS011;54257;54.496;18.412;2023-05-02T06:39:32;6.80;;;4.30;;
67372;SDS011;54257;54.496;18.412;2023-05-02T06:41:59;6.90;;;3.70;;
67372;SDS011;54257;54.496;18.412;2023-05-02T06:44:26;9.40;;;5.00;;
67372;SDS011;54257;54.496;18.412;2023-05-02T06:46:54;6.70;;;4.50;;
67372;SDS011;54257;54.496;18.412;2023-05-02T06:49:21;6.60;;;3.70;;
67372;SDS011;54257;54.496;18.412;2023-05-02T06:51:49;7.20;;;4.00;;
67372;SDS011;54257;54.496;18.412;2023-05-02T06:54:16;5.80;;;3.90;;
67372;SDS011;54257;54.496;18.412;2023-05-02T06:56:43;10.70;;;4.10;;
67372;SDS011;54257;54.496;18.412;2023-05-02T06:59:10;9.00;;;3.90;;
67372;SDS011;54257;54.496;18.412;2023-05-02T07:01:40;4.10;;;3.50;;
67372;SDS011;54257;54.496;18.412;2023-05-02T07:04:10;5.30;;;3.90;;
67372;SDS011;54257;54.496;18.412;2023-05-02T07:06:37;7.10;;;3.50;;
67372;SDS011;54257;54.496;18.412;2023-05-02T07:09:05;6.80;;;3.80;;
67372;SDS011;54257;54.496;18.412;2023-05-02T07:11:32;6.50;;;3.40;;
67372;SDS011;54257;54.496;18.412;2023-05-02T07:14:00;6.30;;;3.40;;
67372;SDS011;54257;54.496;18.412;2023-05-02T07:16:26;6.70;;;3.70;;
67372;SDS011;54257;54.496;18.412;2023-05-02T07:18:53;7.10;;;3.80;;
67372;SDS011;54257;54.496;18.412;2023-05-02T07:21:20;5.00;;;3.30;;
67372;SDS011;54257;54.496;18.412;2023-05-02T07:23:47;10.10;;;4.50;;
67372;SDS011;54257;54.496;18.412;2023-05-02T07:26:15;4.60;;;3.80;;
67372;SDS011;54257;54.496;18.412;2023-05-02T07:28:44;4.70;;;3.10;;
67372;SDS011;54257;54.496;18.412;2023-05-02T07:31:11;5.60;;;3.50;;
67372;SDS011;54257;54.496;18.412;2023-05-02T07:33:38;4.00;;;3.40;;
67372;SDS011;54257;54.496;18.412;2023-05-02T07:36:05;4.70;;;2.90;;
67372;SDS011;54257;54.496;18.412;2023-05-02T07:38:32;6.50;;;3.40;;
67372;SDS011;54257;54.496;18.412;2023-05-02T07:40:59;5.40;;;3.00;;
67372;SDS011;54257;54.496;18.412;2023-05-02T07:43:26;4.80;;;2.70;;
67372;SDS011;54257;54.496;18.412;2023-05-02T07:45:53;4.50;;;3.10;;
67372;SDS011;54257;54.496;18.412;2023-05-02T07:48:21;5.90;;;3.40;;
67372;SDS011;54257;54.496;18.412;2023-05-02T07:50:48;8.20;;;2.90;;
67372;SDS011;54257;54.496;18.412;2023-05-02T07:53:15;8.80;;;3.10;;
67372;SDS011;54257;54.496;18.412;2023-05-02T07:55:42;4.40;;;2.90;;
67372;SDS011;54257;54.496;18.412;2023-05-02T07:58:09;4.30;;;2.70;;
67372;SDS011;54257;54.496;18.412;2023-05-02T08:00:37;8.20;;;3.40;;
67372;SDS011;54257;54.496;18.412;2023-05-02T08:03:05;7.50;;;3.10;;
67372;SDS011;54257;54.496;18.412;2023-05-02T08:05:33;5.00;;;3.00;;
67372;SDS011;54257;54.496;18.412;2023-05-02T08:07:59;5.20;;;2.60;;
67372;SDS011;54257;54.496;18.412;2023-05-02T08:10:27;4.20;;;3.20;;
67372;SDS011;54257;54.496;18.412;2023-05-02T08:12:54;4.80;;;2.70;;
67372;SDS011;54257;54.496;18.412;2023-05-02T08:15:21;5.40;;;2.60;;
67372;SDS011;54257;54.496;18.412;2023-05-02T08:17:48;2.30;;;2.10;;
67372;SDS011;54257;54.496;18.412;2023-05-02T08:20:15;3.70;;;2.40;;
67372;SDS011;54257;54.496;18.412;2023-05-02T08:22:42;4.90;;;2.30;;
67372;SDS011;54257;54.496;18.412;2023-05-02T08:25:09;7.00;;;2.70;;
67372;SDS011;54257;54.496;18.412;2023-05-02T08:27:36;3.90;;;2.30;;
67372;SDS011;54257;54.496;18.412;2023-05-02T08:30:03;2.50;;;2.20;;
67372;SDS011;54257;54.496;18.412;2023-05-02T08:32:31;4.60;;;2.70;;
67372;SDS011;54257;54.496;18.412;2023-05-02T08:34:58;6.20;;;3.00;;
67372;SDS011;54257;54.496;18.412;2023-05-02T08:37:25;9.10;;;3.00;;
67372;SDS011;54257;54.496;18.412;2023-05-02T08:39:52;6.50;;;2.80;;
67372;SDS011;54257;54.496;18.412;2023-05-02T08:42:20;3.30;;;2.40;;
67372;SDS011;54257;54.496;18.412;2023-05-02T08:44:47;4.30;;;2.50;;
67372;SDS011;54257;54.496;18.412;2023-05-02T08:47:15;3.20;;;2.20;;
67372;SDS011;54257;54.496;18.412;2023-05-02T08:49:44;4.80;;;2.90;;
67372;SDS011;54257;54.496;18.412;2023-05-02T08:52:12;3.80;;;2.70;;
67372;SDS011;54257;54.496;18.412;2023-05-02T08:54:41;6.30;;;2.70;;
67372;SDS011;54257;54.496;18.412;2023-05-02T08:57:08;6.30;;;3.50;;
67372;SDS011;54257;54.496;18.412;2023-05-02T08:59:35;5.20;;;2.70;;
67372;SDS011;54257;54.496;18.412;2023-05-02T09:02:32;6.70;;;3.40;;
67372;SDS011;54257;54.496;18.412;2023-05-02T09:04:53;5.20;;;3.10;;
67372;SDS011;54257;54.496;18.412;2023-05-02T09:07:26;4.30;;;2.50;;
67372;SDS011;54257;54.496;18.412;2023-05-02T09:09:53;4.60;;;2.90;;
67372;SDS011;54257;54.496;18.412;2023-05-02T09:12:24;5.70;;;3.20;;
67372;SDS011;54257;54.496;18.412;2023-05-02T09:15:08;4.80;;;3.70;;
67372;SDS011;54257;54.496;18.412;2023-05-02T09:17:37;6.00;;;3.50;;
67372;SDS011;54257;54.496;18.412;2023-05-02T09:20:14;8.90;;;4.30;;
67372;SDS011;54257;54.496;18.412;2023-05-02T09:22:49;4.90;;;4.00;;
67372;SDS011;54257;54.496;18.412;2023-05-02T09:25:18;5.40;;;3.70;;
67372;SDS011;54257;54.496;18.412;2023-05-02T09:30:20;10.20;;;4.40;;
67372;SDS011;54257;54.496;18.412;2023-05-02T09:32:52;8.00;;;5.10;;
67372;SDS011;54257;54.496;18.412;2023-05-02T09:35:23;8.90;;;5.20;;
67372;SDS011;54257;54.496;18.412;2023-05-02T09:37:51;6.20;;;5.40;;
67372;SDS011;54257;54.496;18.412;2023-05-02T09:40:22;6.10;;;5.50;;
67372;SDS011;54257;54.496;18.412;2023-05-02T09:42:51;11.20;;;5.60;;
67372;SDS011;54257;54.496;18.412;2023-05-02T09:45:21;6.30;;;5.70;;
67372;SDS011;54257;54.496;18.412;2023-05-02T09:47:50;8.20;;;5.30;;
67372;SDS011;54257;54.496;18.412;2023-05-02T09:50:37;5.90;;;4.70;;
67372;SDS011;54257;54.496;18.412;2023-05-02T09:53:08;9.20;;;5.90;;
67372;SDS011;54257;54.496;18.412;2023-05-02T09:55:36;7.20;;;5.80;;
67372;SDS011;54257;54.496;18.412;2023-05-02T09:58:03;7.00;;;6.00;;
67372;SDS011;54257;54.496;18.412;2023-05-02T10:01:05;7.90;;;6.20;;
67372;SDS011;54257;54.496;18.412;2023-05-02T10:03:26;8.00;;;6.90;;
67372;SDS011;54257;54.496;18.412;2023-05-02T10:05:54;7.90;;;6.80;;
67372;SDS011;54257;54.496;18.412;2023-05-02T10:08:24;7.10;;;6.10;;
67372;SDS011;54257;54.496;18.412;2023-05-02T10:10:55;11.30;;;6.00;;
67372;SDS011;54257;54.496;18.412;2023-05-02T10:13:25;7.70;;;6.00;;
67372;SDS011;54257;54.496;18.412;2023-05-02T10:15:53;6.50;;;5.60;;
67372;SDS011;54257;54.496;18.412;2023-05-02T10:18:26;7.40;;;5.70;;
67372;SDS011;54257;54.496;18.412;2023-05-02T10:21:09;6.50;;;5.30;;
67372;SDS011;54257;54.496;18.412;2023-05-02T10:23:43;7.10;;;5.50;;
67372;SDS011;54257;54.496;18.412;2023-05-02T10:26:13;6.40;;;5.40;;
67372;SDS011;54257;54.496;18.412;2023-05-02T10:28:41;6.10;;;5.20;;
67372;SDS011;54257;54.496;18.412;2023-05-02T10:31:10;7.60;;;6.50;;
67372;SDS011;54257;54.496;18.412;2023-05-02T10:33:39;6.40;;;5.60;;
67372;SDS011;54257;54.496;18.412;2023-05-02T10:36:10;14.80;;;6.10;;
67372;SDS011;54257;54.496;18.412;2023-05-02T10:38:40;7.30;;;5.80;;
67372;SDS011;54257;54.496;18.412;2023-05-02T10:41:18;6.60;;;5.80;;
67372;SDS011;54257;54.496;18.412;2023-05-02T10:43:48;9.60;;;6.50;;
67372;SDS011;54257;54.496;18.412;2023-05-02T10:46:28;7.40;;;5.50;;
67372;SDS011;54257;54.496;18.412;2023-05-02T10:48:59;8.80;;;6.60;;
67372;SDS011;54257;54.496;18.412;2023-05-02T10:51:27;6.50;;;5.70;;
67372;SDS011;54257;54.496;18.412;2023-05-02T10:54:04;7.60;;;5.90;;
67372;SDS011;54257;54.496;18.412;2023-05-02T10:59:41;7.90;;;5.60;;
67372;SDS011;54257;54.496;18.412;2023-05-02T11:05:06;6.70;;;5.80;;
67372;SDS011;54257;54.496;18.412;2023-05-02T11:10:45;7.30;;;5.90;;
67372;SDS011;54257;54.496;18.412;2023-05-02T11:13:13;8.50;;;6.30;;
67372;SDS011;54257;54.496;18.412;2023-05-02T11:18:10;8.20;;;5.70;;
67372;SDS011;54257;54.496;18.412;2023-05-02T11:20:38;8.00;;;5.40;;
67372;SDS011;54257;54.496;18.412;2023-05-02T11:25:44;3.50;;;3.10;;
67372;SDS011;54257;54.496;18.412;2023-05-02T11:31:04;4.30;;;3.20;;
67372;SDS011;54257;54.496;18.412;2023-05-02T11:33:32;4.40;;;3.20;;
67372;SDS011;54257;54.496;18.412;2023-05-02T11:35:59;3.40;;;3.10;;
67372;SDS011;54257;54.496;18.412;2023-05-02T11:38:34;3.20;;;2.90;;
67372;SDS011;54257;54.496;18.412;2023-05-02T11:41:03;3.90;;;3.10;;
67372;SDS011;54257;54.496;18.412;2023-05-02T11:43:30;4.00;;;3.60;;
67372;SDS011;54257;54.496;18.412;2023-05-02T11:45:57;5.90;;;3.90;;
67372;SDS011;54257;54.496;18.412;2023-05-02T11:48:25;4.60;;;3.90;;
67372;SDS011;54257;54.496;18.412;2023-05-02T11:50:54;5.20;;;4.30;;
67372;SDS011;54257;54.496;18.412;2023-05-02T11:53:24;6.00;;;3.90;;
67372;SDS011;54257;54.496;18.412;2023-05-02T11:55:58;5.00;;;3.80;;
67372;SDS011;54257;54.496;18.412;2023-05-02T11:58:27;5.50;;;4.10;;
67372;SDS011;54257;54.496;18.412;2023-05-02T12:00:55;6.00;;;4.20;;
67372;SDS011;54257;54.496;18.412;2023-05-02T12:03:29;4.90;;;4.10;;
67372;SDS011;54257;54.496;18.412;2023-05-02T12:06:08;5.60;;;4.10;;
67372;SDS011;54257;54.496;18.412;2023-05-02T12:08:37;5.20;;;3.70;;
67372;SDS011;54257;54.496;18.412;2023-05-02T12:11:05;5.60;;;4.20;;
67372;SDS011;54257;54.496;18.412;2023-05-02T12:13:32;4.20;;;3.20;;
67372;SDS011;54257;54.496;18.412;2023-05-02T12:16:00;5.90;;;3.60;;
67372;SDS011;54257;54.496;18.412;2023-05-02T12:18:27;5.10;;;3.60;;
67372;SDS011;54257;54.496;18.412;2023-05-02T12:20:54;6.70;;;3.90;;
67372;SDS011;54257;54.496;18.412;2023-05-02T12:23:23;7.20;;;4.10;;
67372;SDS011;54257;54.496;18.412;2023-05-02T12:25:52;6.30;;;4.40;;
67372;SDS011;54257;54.496;18.412;2023-05-02T12:28:19;6.90;;;4.10;;
67372;SDS011;54257;54.496;18.412;2023-05-02T12:30:47;6.90;;;4.20;;
67372;SDS011;54257;54.496;18.412;2023-05-02T12:33:17;6.70;;;4.50;;
67372;SDS011;54257;54.496;18.412;2023-05-02T12:35:44;8.90;;;4.60;;
67372;SDS011;54257;54.496;18.412;2023-05-02T12:38:14;7.60;;;4.80;;
67372;SDS011;54257;54.496;18.412;2023-05-02T12:40:50;6.00;;;3.80;;
67372;SDS011;54257;54.496;18.412;2023-05-02T12:43:19;7.20;;;3.40;;
67372;SDS011;54257;54.496;18.412;2023-05-02T12:45:47;6.90;;;3.30;;
67372;SDS011;54257;54.496;18.412;2023-05-02T12:48:26;5.30;;;3.20;;
67372;SDS011;54257;54.496;18.412;2023-05-02T12:50:53;7.60;;;3.30;;
67372;SDS011;54257;54.496;18.412;2023-05-02T12:53:39;4.70;;;2.70;;
67372;SDS011;54257;54.496;18.412;2023-05-02T12:56:09;5.50;;;2.70;;
67372;SDS011;54257;54.496;18.412;2023-05-02T12:58:44;7.20;;;2.30;;
67372;SDS011;54257;54.496;18.412;2023-05-02T13:01:14;6.60;;;2.80;;
67372;SDS011;54257;54.496;18.412;2023-05-02T13:03:41;4.30;;;2.20;;
67372;SDS011;54257;54.496;18.412;2023-05-02T13:06:09;6.00;;;2.40;;
67372;SDS011;54257;54.496;18.412;2023-05-02T13:08:37;14.10;;;4.70;;
67372;SDS011;54257;54.496;18.412;2023-05-02T13:11:04;11.40;;;4.00;;
67372;SDS011;54257;54.496;18.412;2023-05-02T13:13:31;6.30;;;3.20;;
67372;SDS011;54257;54.496;18.412;2023-05-02T13:15:59;5.90;;;3.10;;
67372;SDS011;54257;54.496;18.412;2023-05-02T13:18:26;11.30;;;4.10;;
67372;SDS011;54257;54.496;18.412;2023-05-02T13:20:53;6.70;;;3.70;;
67372;SDS011;54257;54.496;18.412;2023-05-02T13:23:20;8.50;;;4.30;;
67372;SDS011;54257;54.496;18.412;2023-05-02T13:25:47;7.80;;;4.00;;
67372;SDS011;54257;54.496;18.412;2023-05-02T13:28:14;4.30;;;2.20;;
67372;SDS011;54257;54.496;18.412;2023-05-02T13:30:41;4.60;;;2.30;;
67372;SDS011;54257;54.496;18.412;2023-05-02T13:33:08;4.40;;;2.30;;
67372;SDS011;54257;54.496;18.412;2023-05-02T13:35:36;3.90;;;2.00;;
67372;SDS011;54257;54.496;18.412;2023-05-02T13:38:03;12.00;;;2.10;;
67372;SDS011;54257;54.496;18.412;2023-05-02T13:40:30;6.10;;;2.90;;
67372;SDS011;54257;54.496;18.412;2023-05-02T13:42:57;4.00;;;1.90;;
67372;SDS011;54257;54.496;18.412;2023-05-02T13:45:24;15.70;;;7.90;;
67372;SDS011;54257;54.496;18.412;2023-05-02T13:47:51;2.00;;;1.70;;
67372;SDS011;54257;54.496;18.412;2023-05-02T13:50:18;3.90;;;1.90;;
67372;SDS011;54257;54.496;18.412;2023-05-02T13:52:45;3.10;;;2.50;;
67372;SDS011;54257;54.496;18.412;2023-05-02T13:55:12;2.20;;;1.50;;
67372;SDS011;54257;54.496;18.412;2023-05-02T13:57:39;2.20;;;1.30;;
67372;SDS011;54257;54.496;18.412;2023-05-02T14:00:06;2.70;;;1.10;;
67372;SDS011;54257;54.496;18.412;2023-05-02T14:02:35;2.10;;;1.20;;
67372;SDS011;54257;54.496;18.412;2023-05-02T14:05:03;1.70;;;1.10;;
67372;SDS011;54257;54.496;18.412;2023-05-02T14:07:30;3.30;;;1.30;;
67372;SDS011;54257;54.496;18.412;2023-05-02T14:09:57;2.90;;;1.00;;
67372;SDS011;54257;54.496;18.412;2023-05-02T14:12:24;2.30;;;1.10;;
67372;SDS011;54257;54.496;18.412;2023-05-02T14:14:51;1.90;;;0.80;;
67372;SDS011;54257;54.496;18.412;2023-05-02T14:17:18;2.50;;;1.10;;
67372;SDS011;54257;54.496;18.412;2023-05-02T14:19:45;3.10;;;1.30;;
67372;SDS011;54257;54.496;18.412;2023-05-02T14:22:12;1.00;;;0.80;;
67372;SDS011;54257;54.496;18.412;2023-05-02T14:24:40;3.60;;;2.20;;
67372;SDS011;54257;54.496;18.412;2023-05-02T14:27:07;1.80;;;1.20;;
67372;SDS011;54257;54.496;18.412;2023-05-02T14:29:38;1.70;;;1.10;;
67372;SDS011;54257;54.496;18.412;2023-05-02T14:32:05;2.20;;;1.20;;
67372;SDS011;54257;54.496;18.412;2023-05-02T14:34:32;2.10;;;1.20;;
67372;SDS011;54257;54.496;18.412;2023-05-02T14:36:59;2.80;;;1.10;;
67372;SDS011;54257;54.496;18.412;2023-05-02T14:39:26;3.10;;;1.50;;
67372;SDS011;54257;54.496;18.412;2023-05-02T14:41:53;1.40;;;1.10;;
67372;SDS011;54257;54.496;18.412;2023-05-02T14:44:19;2.40;;;1.10;;
67372;SDS011;54257;54.496;18.412;2023-05-02T14:46:46;2.20;;;1.10;;
67372;SDS011;54257;54.496;18.412;2023-05-02T14:49:13;1.80;;;1.20;;
67372;SDS011;54257;54.496;18.412;2023-05-02T14:51:40;2.60;;;1.60;;
67372;SDS011;54257;54.496;18.412;2023-05-02T14:54:08;2.40;;;1.30;;
67372;SDS011;54257;54.496;18.412;2023-05-02T14:56:35;2.50;;;1.50;;
67372;SDS011;54257;54.496;18.412;2023-05-02T14:59:02;3.50;;;2.40;;
67372;SDS011;54257;54.496;18.412;2023-05-02T15:01:29;1.70;;;1.60;;
67372;SDS011;54257;54.496;18.412;2023-05-02T15:03:56;4.10;;;2.60;;
67372;SDS011;54257;54.496;18.412;2023-05-02T15:06:23;1.70;;;1.50;;
67372;SDS011;54257;54.496;18.412;2023-05-02T15:08:50;4.10;;;3.00;;
67372;SDS011;54257;54.496;18.412;2023-05-02T15:11:16;11.00;;;6.20;;
67372;SDS011;54257;54.496;18.412;2023-05-02T15:13:43;4.30;;;3.00;;
67372;SDS011;54257;54.496;18.412;2023-05-02T15:16:10;8.30;;;5.20;;
67372;SDS011;54257;54.496;18.412;2023-05-02T15:18:37;5.20;;;4.00;;
67372;SDS011;54257;54.496;18.412;2023-05-02T15:21:04;6.50;;;4.60;;
67372;SDS011;54257;54.496;18.412;2023-05-02T15:23:31;3.20;;;1.40;;
67372;SDS011;54257;54.496;18.412;2023-05-02T15:25:58;3.20;;;1.40;;